sensor_id;sensor_type;location;lat;lon;timestamp;pressure;altitude;pressure_sealevel;temperature;humidity
48778;BME280;34578;0.000;0.000;2024-03-23T00:53:01;96065.97;;;18.20;54.75
48778;BME280;34578;0.000;0.000;2024-03-23T00:58:02;96058.34;;;18.22;54.48
48778;BME280;34578;0.000;0.000;2024-03-23T01:03:02;96055.00;;;18.20;54.83
48778;BME280;34578;0.000;0.000;2024-03-23T01:08:03;96022.06;;;18.20;55.21
48778;BME280;34578;0.000;0.000;2024-03-23T01:13:03;96027.97;;;18.19;55.32
48778;BME280;34578;0.000;0.000;2024-03-23T01:18:04;96021.19;;;18.21;55.28
48778;BME280;34578;0.000;0.000;2024-03-23T01:23:04;96011.91;;;18.21;55.46
48778;BME280;34578;0.000;0.000;2024-03-23T01:28:05;96002.59;;;18.22;55.49
48778;BME280;34578;0.000;0.000;2024-03-23T01:33:08;96009.38;;;18.21;55.37
48778;BME280;34578;0.000;0.000;2024-03-23T01:38:08;96012.75;;;18.22;55.01
48778;BME280;34578;0.000;0.000;2024-03-23T01:43:09;96001.84;;;18.17;55.44
48778;BME280;34578;0.000;0.000;2024-03-23T01:48:09;95993.38;;;18.18;55.60
48778;BME280;34578;0.000;0.000;2024-03-23T01:53:13;95992.47;;;18.22;55.69
48778;BME280;34578;0.000;0.000;2024-03-23T01:58:17;95977.31;;;18.19;55.40
48778;BME280;34578;0.000;0.000;2024-03-23T02:03:27;95990.00;;;18.17;55.42
48778;BME280;34578;0.000;0.000;2024-03-23T02:08:28;95982.38;;;18.17;55.81
48778;BME280;34578;0.000;0.000;2024-03-23T02:13:30;95992.56;;;18.16;55.41
48778;BME280;34578;0.000;0.000;2024-03-23T02:18:32;95990.00;;;18.17;55.41
48778;BME280;34578;0.000;0.000;2024-03-23T02:23:33;95990.84;;;18.16;55.79
48778;BME280;34578;0.000;0.000;2024-03-23T02:28:33;95984.09;;;18.17;55.65
48778;BME280;34578;0.000;0.000;2024-03-23T02:33:33;95975.63;;;18.18;55.88
48778;BME280;34578;0.000;0.000;2024-03-23T02:38:38;95989.97;;;18.20;56.23
48778;BME280;34578;0.000;0.000;2024-03-23T02:43:38;95977.31;;;18.20;56.23
48778;BME280;34578;0.000;0.000;2024-03-23T02:48:38;95973.91;;;18.20;56.42
48778;BME280;34578;0.000;0.000;2024-03-23T02:53:39;95954.50;;;18.20;56.09
48778;BME280;34578;0.000;0.000;2024-03-23T02:58:39;95959.53;;;18.22;56.28
48778;BME280;34578;0.000;0.000;2024-03-23T03:03:39;95946.88;;;18.22;56.07
48778;BME280;34578;0.000;0.000;2024-03-23T03:08:40;95933.38;;;18.21;56.00
48778;BME280;34578;0.000;0.000;2024-03-23T03:13:40;95938.44;;;18.21;56.01
48778;BME280;34578;0.000;0.000;2024-03-23T03:18:40;95921.56;;;18.19;55.85
48778;BME280;34578;0.000;0.000;2024-03-23T03:23:41;95926.66;;;18.19;55.42
48778;BME280;34578;0.000;0.000;2024-03-23T03:28:43;95914.00;;;18.17;56.04
48778;BME280;34578;0.000;0.000;2024-03-23T03:33:49;95896.34;;;18.10;55.83
48778;BME280;34578;0.000;0.000;2024-03-23T03:38:51;95886.16;;;18.16;56.02
48778;BME280;34578;0.000;0.000;2024-03-23T03:43:51;95867.59;;;18.14;54.64
48778;BME280;34578;0.000;0.000;2024-03-23T03:48:51;95889.56;;;18.15;54.11
48778;BME280;34578;0.000;0.000;2024-03-23T03:53:52;95865.06;;;18.14;54.24
48778;BME280;34578;0.000;0.000;2024-03-23T03:58:52;95872.66;;;18.14;54.26
48778;BME280;34578;0.000;0.000;2024-03-23T04:03:52;95860.84;;;18.13;54.04
48778;BME280;34578;0.000;0.000;2024-03-23T04:08:53;95853.25;;;18.14;55.24
48778;BME280;34578;0.000;0.000;2024-03-23T04:13:53;95846.50;;;18.13;54.35
48778;BME280;34578;0.000;0.000;2024-03-23T04:18:53;95830.44;;;18.13;53.54
48778;BME280;34578;0.000;0.000;2024-03-23T04:23:54;95877.72;;;18.14;55.56
48778;BME280;34578;0.000;0.000;2024-03-23T04:28:54;95842.31;;;18.11;54.10
48778;BME280;34578;0.000;0.000;2024-03-23T04:33:55;95844.84;;;18.11;53.98
48778;BME280;34578;0.000;0.000;2024-03-23T04:38:59;95844.84;;;18.09;53.64
48778;BME280;34578;0.000;0.000;2024-03-23T04:44:00;95838.97;;;18.09;53.43
48778;BME280;34578;0.000;0.000;2024-03-23T04:49:01;95838.09;;;18.10;55.56
48778;BME280;34578;0.000;0.000;2024-03-23T04:54:01;95862.56;;;18.11;54.60
48778;BME280;34578;0.000;0.000;2024-03-23T04:59:05;95882.81;;;18.12;55.99
48778;BME280;34578;0.000;0.000;2024-03-23T05:04:06;95876.09;;;18.10;56.43
48778;BME280;34578;0.000;0.000;2024-03-23T05:09:06;95883.56;;;18.20;56.60
48778;BME280;34578;0.000;0.000;2024-03-23T05:14:07;95880.13;;;18.24;56.48
48778;BME280;34578;0.000;0.000;2024-03-23T05:19:10;95875.06;;;18.24;56.44
48778;BME280;34578;0.000;0.000;2024-03-23T05:24:10;95892.78;;;18.26;55.83
48778;BME280;34578;0.000;0.000;2024-03-23T05:29:12;95909.66;;;18.27;55.56
48778;BME280;34578;0.000;0.000;2024-03-23T05:34:13;95936.66;;;18.28;55.38
48778;BME280;34578;0.000;0.000;2024-03-23T05:39:14;95933.34;;;18.24;56.08
48778;BME280;34578;0.000;0.000;2024-03-23T05:44:16;95931.66;;;18.25;55.78
48778;BME280;34578;0.000;0.000;2024-03-23T05:49:17;95945.13;;;18.25;55.84
48778;BME280;34578;0.000;0.000;2024-03-23T05:54:18;95949.41;;;18.23;56.40
48778;BME280;34578;0.000;0.000;2024-03-23T05:59:18;95951.94;;;18.22;55.28
48778;BME280;34578;0.000;0.000;2024-03-23T06:04:19;95967.13;;;18.22;56.00
48778;BME280;34578;0.000;0.000;2024-03-23T06:09:19;95972.19;;;18.22;56.12
48778;BME280;34578;0.000;0.000;2024-03-23T06:14:22;95978.13;;;18.24;55.63
48778;BME280;34578;0.000;0.000;2024-03-23T06:19:22;95984.84;;;18.25;55.59
48778;BME280;34578;0.000;0.000;2024-03-23T06:24:23;96037.22;;;18.26;56.21
48778;BME280;34578;0.000;0.000;2024-03-23T06:29:24;96028.75;;;18.25;56.46
48778;BME280;34578;0.000;0.000;2024-03-23T06:34:24;96086.22;;;18.25;56.42
48778;BME280;34578;0.000;0.000;2024-03-23T06:39:25;96100.56;;;18.26;56.41
48778;BME280;34578;0.000;0.000;2024-03-23T06:44:25;96104.75;;;18.27;56.43
48778;BME280;34578;0.000;0.000;2024-03-23T06:49:26;96099.69;;;18.25;56.15
48778;BME280;34578;0.000;0.000;2024-03-23T06:54:29;96115.75;;;18.27;56.40
48778;BME280;34578;0.000;0.000;2024-03-23T06:59:29;96140.22;;;18.27;55.82
48778;BME280;34578;0.000;0.000;2024-03-23T07:04:29;96158.78;;;18.29;56.12
48778;BME280;34578;0.000;0.000;2024-03-23T07:09:30;96190.06;;;18.31;56.26
48778;BME280;34578;0.000;0.000;2024-03-23T07:14:30;96210.31;;;18.31;56.36
48778;BME280;34578;0.000;0.000;2024-03-23T07:19:31;96228.09;;;18.29;56.31
48778;BME280;34578;0.000;0.000;2024-03-23T07:24:31;96220.47;;;18.31;56.35
48778;BME280;34578;0.000;0.000;2024-03-23T07:29:32;96233.16;;;18.29;56.28
48778;BME280;34578;0.000;0.000;2024-03-23T07:34:33;96245.81;;;18.31;56.24
48778;BME280;34578;0.000;0.000;2024-03-23T07:39:33;96247.50;;;18.30;56.16
48778;BME280;34578;0.000;0.000;2024-03-23T07:44:34;96275.34;;;18.29;56.65
48778;BME280;34578;0.000;0.000;2024-03-23T07:49:34;96275.38;;;18.24;56.50
48778;BME280;34578;0.000;0.000;2024-03-23T07:54:35;96306.63;;;18.28;56.29
48778;BME280;34578;0.000;0.000;2024-03-23T07:59:35;96323.53;;;18.27;55.96
48778;BME280;34578;0.000;0.000;2024-03-23T08:04:36;96316.75;;;18.28;55.97
48778;BME280;34578;0.000;0.000;2024-03-23T08:09:36;96347.16;;;18.28;55.60
48778;BME280;34578;0.000;0.000;2024-03-23T08:14:36;96369.13;;;18.27;55.70
48778;BME280;34578;0.000;0.000;2024-03-23T08:19:37;96388.56;;;18.27;55.59
48778;BME280;34578;0.000;0.000;2024-03-23T08:24:37;96387.69;;;18.28;55.40
48778;BME280;34578;0.000;0.000;2024-03-23T08:29:37;96394.47;;;18.26;54.08
48778;BME280;34578;0.000;0.000;2024-03-23T08:34:38;96405.44;;;18.28;53.01
48778;BME280;34578;0.000;0.000;2024-03-23T08:39:38;96423.16;;;18.26;53.19
48778;BME280;34578;0.000;0.000;2024-03-23T08:44:38;96432.50;;;18.26;52.21
48778;BME280;34578;0.000;0.000;2024-03-23T08:49:39;96435.03;;;18.26;53.31
48778;BME280;34578;0.000;0.000;2024-03-23T08:54:39;96445.16;;;18.23;53.01
48778;BME280;34578;0.000;0.000;2024-03-23T08:59:39;96449.41;;;18.24;54.64
48778;BME280;34578;0.000;0.000;2024-03-23T09:04:40;96439.25;;;18.24;54.73
48778;BME280;34578;0.000;0.000;2024-03-23T09:09:40;96431.66;;;18.24;54.02
48778;BME280;34578;0.000;0.000;2024-03-23T09:14:41;96431.66;;;18.24;54.39
48778;BME280;34578;0.000;0.000;2024-03-23T09:19:41;96417.28;;;18.24;54.63
48778;BME280;34578;0.000;0.000;2024-03-23T09:24:41;96422.34;;;18.18;54.14
48778;BME280;34578;0.000;0.000;2024-03-23T09:29:42;96431.66;;;18.21;53.65
48778;BME280;34578;0.000;0.000;2024-03-23T09:34:42;96423.19;;;18.22;50.73
48778;BME280;34578;0.000;0.000;2024-03-23T09:39:42;96419.84;;;18.21;53.70
48778;BME280;34578;0.000;0.000;2024-03-23T09:44:44;96413.91;;;18.21;51.69
48778;BME280;34578;0.000;0.000;2024-03-23T09:49:44;96406.31;;;18.21;51.85
48778;BME280;34578;0.000;0.000;2024-03-23T09:54:45;96400.41;;;18.20;52.14
48778;BME280;34578;0.000;0.000;2024-03-23T09:59:45;96404.63;;;18.20;51.01
48778;BME280;34578;0.000;0.000;2024-03-23T10:04:46;96401.28;;;18.13;50.56
48778;BME280;34578;0.000;0.000;2024-03-23T10:09:46;96387.75;;;18.19;53.08
48778;BME280;34578;0.000;0.000;2024-03-23T10:14:47;96396.22;;;18.15;49.31
48778;BME280;34578;0.000;0.000;2024-03-23T10:19:49;96386.09;;;18.06;49.15
48778;BME280;34578;0.000;0.000;2024-03-23T10:24:49;96394.72;;;17.36;47.45
48778;BME280;34578;0.000;0.000;2024-03-23T10:29:50;96387.09;;;17.25;47.45
48778;BME280;34578;0.000;0.000;2024-03-23T10:34:50;96407.31;;;17.07;46.92
48778;BME280;34578;0.000;0.000;2024-03-23T10:39:51;96398.91;;;16.92;45.43
48778;BME280;34578;0.000;0.000;2024-03-23T10:44:51;96398.84;;;16.75;45.90
48778;BME280;34578;0.000;0.000;2024-03-23T10:49:53;96440.97;;;16.63;45.64
48778;BME280;34578;0.000;0.000;2024-03-23T10:54:55;96467.97;;;16.72;45.95
48778;BME280;34578;0.000;0.000;2024-03-23T10:59:56;96500.94;;;17.15;45.69
48778;BME280;34578;0.000;0.000;2024-03-23T11:04:57;96519.41;;;16.85;45.27
48778;BME280;34578;0.000;0.000;2024-03-23T11:09:59;96536.22;;;16.73;45.33
48778;BME280;34578;0.000;0.000;2024-03-23T11:15:11;96538.00;;;16.98;44.73
48778;BME280;34578;0.000;0.000;2024-03-23T11:20:11;96532.94;;;17.10;44.74
48778;BME280;34578;0.000;0.000;2024-03-23T11:25:25;96535.31;;;16.64;45.51
48778;BME280;34578;0.000;0.000;2024-03-23T11:30:27;96527.56;;;16.32;45.73
48778;BME280;34578;0.000;0.000;2024-03-23T11:35:32;96524.06;;;16.06;46.82
48778;BME280;34578;0.000;0.000;2024-03-23T11:40:34;96535.06;;;16.14;46.62
48778;BME280;34578;0.000;0.000;2024-03-23T11:45:36;96532.53;;;16.14;47.10
48778;BME280;34578;0.000;0.000;2024-03-23T11:50:39;96521.47;;;15.99;46.98
48778;BME280;34578;0.000;0.000;2024-03-23T11:55:49;96515.63;;;16.07;46.65
48778;BME280;34578;0.000;0.000;2024-03-23T12:00:56;96524.41;;;16.71;46.63
48778;BME280;34578;0.000;0.000;2024-03-23T12:05:59;96504.28;;;17.15;45.40
48778;BME280;34578;0.000;0.000;2024-03-23T12:11:15;96490.88;;;17.43;46.88
48778;BME280;34578;0.000;0.000;2024-03-23T12:16:20;96473.16;;;17.60;48.42
48778;BME280;34578;0.000;0.000;2024-03-23T12:21:21;96459.63;;;17.71;46.74
48778;BME280;34578;0.000;0.000;2024-03-23T12:26:22;96454.56;;;17.77;46.16
48778;BME280;34578;0.000;0.000;2024-03-23T12:31:23;96440.22;;;17.84;45.61
48778;BME280;34578;0.000;0.000;2024-03-23T12:36:24;96431.75;;;17.88;45.43
48778;BME280;34578;0.000;0.000;2024-03-23T12:41:25;96419.94;;;17.94;45.84
48778;BME280;34578;0.000;0.000;2024-03-23T12:46:25;96430.03;;;18.00;46.06
48778;BME280;34578;0.000;0.000;2024-03-23T12:51:25;96425.81;;;18.02;45.95
48778;BME280;34578;0.000;0.000;2024-03-23T12:56:26;96408.94;;;17.98;46.29
48778;BME280;34578;0.000;0.000;2024-03-23T13:01:28;96395.50;;;17.69;45.48
48778;BME280;34578;0.000;0.000;2024-03-23T13:06:28;96399.69;;;17.72;44.92
48778;BME280;34578;0.000;0.000;2024-03-23T13:11:34;96402.22;;;17.84;44.65
48778;BME280;34578;0.000;0.000;2024-03-23T13:16:34;96390.41;;;17.87;44.93
48778;BME280;34578;0.000;0.000;2024-03-23T13:21:34;96386.16;;;17.91;44.53
48778;BME280;34578;0.000;0.000;2024-03-23T13:26:35;96379.44;;;17.90;44.80
48778;BME280;34578;0.000;0.000;2024-03-23T13:31:35;96376.09;;;17.67;44.61
48778;BME280;34578;0.000;0.000;2024-03-23T13:36:35;96382.81;;;17.80;44.46
48778;BME280;34578;0.000;0.000;2024-03-23T13:41:45;96366.78;;;17.84;44.21
48778;BME280;34578;0.000;0.000;2024-03-23T13:46:45;96361.69;;;17.88;44.31
48778;BME280;34578;0.000;0.000;2024-03-23T13:51:47;96350.69;;;17.94;44.22
48778;BME280;34578;0.000;0.000;2024-03-23T13:56:51;96325.38;;;17.94;44.06
48778;BME280;34578;0.000;0.000;2024-03-23T14:01:52;96321.13;;;17.96;44.42
48778;BME280;34578;0.000;0.000;2024-03-23T14:06:52;96318.59;;;17.96;43.47
48778;BME280;34578;0.000;0.000;2024-03-23T14:11:53;96306.78;;;17.96;44.00
48778;BME280;34578;0.000;0.000;2024-03-23T14:16:53;96291.59;;;17.95;43.89
48778;BME280;34578;0.000;0.000;2024-03-23T14:21:53;96287.38;;;17.95;43.96
48778;BME280;34578;0.000;0.000;2024-03-23T14:26:54;96278.88;;;18.05;44.43
48778;BME280;34578;0.000;0.000;2024-03-23T14:31:54;96286.44;;;18.13;44.46
48778;BME280;34578;0.000;0.000;2024-03-23T14:36:54;96299.03;;;18.25;45.77
48778;BME280;34578;0.000;0.000;2024-03-23T14:41:55;96300.78;;;18.14;44.65
48778;BME280;34578;0.000;0.000;2024-03-23T14:46:58;96313.44;;;18.17;44.45
48778;BME280;34578;0.000;0.000;2024-03-23T14:51:59;96312.59;;;18.16;43.42
48778;BME280;34578;0.000;0.000;2024-03-23T14:56:59;96326.97;;;18.14;43.35
48778;BME280;34578;0.000;0.000;2024-03-23T15:01:59;96325.31;;;18.03;43.13
48778;BME280;34578;0.000;0.000;2024-03-23T15:07:00;96341.34;;;18.05;43.00
48778;BME280;34578;0.000;0.000;2024-03-23T15:12:01;96332.06;;;18.04;42.90
48778;BME280;34578;0.000;0.000;2024-03-23T15:17:01;96339.66;;;18.04;42.60
48778;BME280;34578;0.000;0.000;2024-03-23T15:22:04;96337.16;;;18.07;42.57
48778;BME280;34578;0.000;0.000;2024-03-23T15:27:05;96320.25;;;18.10;42.70
48778;BME280;34578;0.000;0.000;2024-03-23T15:32:07;96336.25;;;18.15;42.47
48778;BME280;34578;0.000;0.000;2024-03-23T15:37:08;96325.28;;;18.15;42.68
48778;BME280;34578;0.000;0.000;2024-03-23T15:42:08;96311.75;;;18.16;42.54
48778;BME280;34578;0.000;0.000;2024-03-23T15:47:08;96291.50;;;18.13;42.67
48778;BME280;34578;0.000;0.000;2024-03-23T15:52:09;96285.59;;;18.11;42.12
48778;BME280;34578;0.000;0.000;2024-03-23T15:57:09;96300.78;;;18.14;42.82
48778;BME280;34578;0.000;0.000;2024-03-23T16:02:09;96308.38;;;18.17;42.92
48778;BME280;34578;0.000;0.000;2024-03-23T16:07:10;96293.19;;;18.17;42.74
48778;BME280;34578;0.000;0.000;2024-03-23T16:12:10;96303.28;;;18.20;42.86
48778;BME280;34578;0.000;0.000;2024-03-23T16:17:11;96329.47;;;18.17;42.95
48778;BME280;34578;0.000;0.000;2024-03-23T16:22:11;96348.97;;;18.08;43.07
48778;BME280;34578;0.000;0.000;2024-03-23T16:27:11;96362.47;;;18.04;44.60
48778;BME280;34578;0.000;0.000;2024-03-23T16:32:12;96376.09;;;17.73;42.93
48778;BME280;34578;0.000;0.000;2024-03-23T16:37:12;96364.25;;;17.84;43.65
48778;BME280;34578;0.000;0.000;2024-03-23T16:42:12;96351.53;;;17.99;44.13
48778;BME280;34578;0.000;0.000;2024-03-23T16:47:13;96338.81;;;18.08;44.25
48778;BME280;34578;0.000;0.000;2024-03-23T16:52:13;96338.78;;;18.14;44.34
48778;BME280;34578;0.000;0.000;2024-03-23T16:57:16;96330.31;;;18.18;44.83
48778;BME280;34578;0.000;0.000;2024-03-23T17:02:17;96326.94;;;18.19;44.85
48778;BME280;34578;0.000;0.000;2024-03-23T17:07:17;96331.16;;;18.21;44.71
48778;BME280;34578;0.000;0.000;2024-03-23T17:12:18;96330.28;;;18.21;44.94
48778;BME280;34578;0.000;0.000;2024-03-23T17:17:18;96302.47;;;18.18;44.85
48778;BME280;34578;0.000;0.000;2024-03-23T17:22:18;96303.28;;;18.20;44.79
48778;BME280;34578;0.000;0.000;2024-03-23T17:27:19;96315.16;;;18.15;44.68
48778;BME280;34578;0.000;0.000;2024-03-23T17:32:19;96302.47;;;18.19;44.57
48778;BME280;34578;0.000;0.000;2024-03-23T17:37:20;96299.91;;;18.18;44.59
48778;BME280;34578;0.000;0.000;2024-03-23T17:42:20;96310.06;;;18.19;44.59
48778;BME280;34578;0.000;0.000;2024-03-23T17:47:20;96299.91;;;18.18;44.74
48778;BME280;34578;0.000;0.000;2024-03-23T17:52:21;96291.47;;;18.19;44.65
48778;BME280;34578;0.000;0.000;2024-03-23T17:57:21;96284.72;;;18.18;44.67
48778;BME280;34578;0.000;0.000;2024-03-23T18:02:22;96279.69;;;18.15;44.93
48778;BME280;34578;0.000;0.000;2024-03-23T18:07:22;96294.84;;;18.19;44.42
48778;BME280;34578;0.000;0.000;2024-03-23T18:12:23;96316.81;;;18.19;44.59
48778;BME280;34578;0.000;0.000;2024-03-23T18:17:24;96327.78;;;18.18;44.05
48778;BME280;34578;0.000;0.000;2024-03-23T18:22:24;96307.53;;;18.18;44.22
48778;BME280;34578;0.000;0.000;2024-03-23T18:27:25;96304.13;;;18.19;44.59
48778;BME280;34578;0.000;0.000;2024-03-23T18:32:25;96296.53;;;18.19;44.73
48778;BME280;34578;0.000;0.000;2024-03-23T18:37:25;96286.38;;;18.22;44.94
48778;BME280;34578;0.000;0.000;2024-03-23T18:42:26;96283.88;;;18.20;45.10
48778;BME280;34578;0.000;0.000;2024-03-23T18:47:26;96302.44;;;18.21;44.96
48778;BME280;34578;0.000;0.000;2024-03-23T18:52:26;96299.88;;;18.21;44.91
48778;BME280;34578;0.000;0.000;2024-03-23T18:57:27;96306.63;;;18.22;44.59
48778;BME280;34578;0.000;0.000;2024-03-23T19:02:27;96301.56;;;18.22;44.85
48778;BME280;34578;0.000;0.000;2024-03-23T19:07:29;96305.78;;;18.24;45.23
48778;BME280;34578;0.000;0.000;2024-03-23T19:12:30;96293.13;;;18.23;44.77
48778;BME280;34578;0.000;0.000;2024-03-23T19:17:32;96283.84;;;18.22;44.56
48778;BME280;34578;0.000;0.000;2024-03-23T19:22:33;96294.81;;;18.24;44.48
48778;BME280;34578;0.000;0.000;2024-03-23T19:27:33;96304.97;;;18.24;44.70
48778;BME280;34578;0.000;0.000;2024-03-23T19:32:36;96311.72;;;18.22;44.00
48778;BME280;34578;0.000;0.000;2024-03-23T19:37:37;96336.19;;;18.23;44.07
48778;BME280;34578;0.000;0.000;2024-03-23T19:42:39;96347.19;;;18.22;43.88
48778;BME280;34578;0.000;0.000;2024-03-23T19:47:39;96357.31;;;18.22;43.89
48778;BME280;34578;0.000;0.000;2024-03-23T19:52:40;96365.78;;;18.24;44.22
48778;BME280;34578;0.000;0.000;2024-03-23T19:57:40;96380.13;;;18.23;44.22
48778;BME280;34578;0.000;0.000;2024-03-23T20:02:44;96384.34;;;18.26;44.21
48778;BME280;34578;0.000;0.000;2024-03-23T20:07:45;96365.75;;;18.27;44.97
48778;BME280;34578;0.000;0.000;2024-03-23T20:12:45;96353.09;;;18.28;45.02
48778;BME280;34578;0.000;0.000;2024-03-23T20:17:45;96347.16;;;18.31;45.47
48778;BME280;34578;0.000;0.000;2024-03-23T20:22:50;96346.34;;;18.30;45.42
48778;BME280;34578;0.000;0.000;2024-03-23T20:27:50;96346.34;;;18.30;45.42
48778;BME280;34578;0.000;0.000;2024-03-23T20:32:51;96335.34;;;18.33;45.35
48778;BME280;34578;0.000;0.000;2024-03-23T20:37:51;96337.03;;;18.31;45.70
48778;BME280;34578;0.000;0.000;2024-03-23T20:42:52;96333.66;;;18.32;45.88
48778;BME280;34578;0.000;0.000;2024-03-23T20:47:53;96335.34;;;18.31;45.62
48778;BME280;34578;0.000;0.000;2024-03-23T20:52:54;96328.56;;;18.29;46.04
48778;BME280;34578;0.000;0.000;2024-03-23T20:57:54;96323.53;;;18.26;45.70
48778;BME280;34578;0.000;0.000;2024-03-23T21:02:55;96320.13;;;18.28;45.96
48778;BME280;34578;0.000;0.000;2024-03-23T21:07:55;96312.53;;;18.28;45.88
48778;BME280;34578;0.000;0.000;2024-03-23T21:12:56;96310.84;;;18.27;45.72
48778;BME280;34578;0.000;0.000;2024-03-23T21:17:56;96321.81;;;18.26;46.20
48778;BME280;34578;0.000;0.000;2024-03-23T21:22:57;96321.84;;;18.25;46.11
48778;BME280;34578;0.000;0.000;2024-03-23T21:27:57;96289.72;;;18.25;46.11
48778;BME280;34578;0.000;0.000;2024-03-23T21:32:57;96271.16;;;18.25;46.02
48778;BME280;34578;0.000;0.000;2024-03-23T21:37:58;96276.22;;;18.28;45.99
48778;BME280;34578;0.000;0.000;2024-03-23T21:42:58;96257.66;;;18.26;45.86
48778;BME280;34578;0.000;0.000;2024-03-23T21:47:58;96239.06;;;18.27;46.07
48778;BME280;34578;0.000;0.000;2024-03-23T21:52:59;96220.47;;;18.26;45.99
48778;BME280;34578;0.000;0.000;2024-03-23T21:57:59;96210.31;;;18.28;45.87
48778;BME280;34578;0.000;0.000;2024-03-23T22:03:00;96199.38;;;18.27;46.21
48778;BME280;34578;0.000;0.000;2024-03-23T22:08:00;96189.34;;;18.12;45.48
48778;BME280;34578;0.000;0.000;2024-03-23T22:13:03;96190.97;;;18.16;46.11
48778;BME280;34578;0.000;0.000;2024-03-23T22:18:03;96180.81;;;18.22;45.06
48778;BME280;34578;0.000;0.000;2024-03-23T22:23:06;96174.13;;;18.09;46.05
48778;BME280;34578;0.000;0.000;2024-03-23T22:28:08;96169.84;;;18.19;44.81
48778;BME280;34578;0.000;0.000;2024-03-23T22:33:08;96185.03;;;18.25;45.70
48778;BME280;34578;0.000;0.000;2024-03-23T22:38:09;96151.22;;;18.23;45.78
48778;BME280;34578;0.000;0.000;2024-03-23T22:43:09;96139.41;;;18.22;44.75
48778;BME280;34578;0.000;0.000;2024-03-23T22:48:09;96136.06;;;18.20;44.13
48778;BME280;34578;0.000;0.000;2024-03-23T22:53:10;96147.06;;;18.19;43.62
48778;BME280;34578;0.000;0.000;2024-03-23T22:58:10;96137.78;;;18.18;43.68
48778;BME280;34578;0.000;0.000;2024-03-23T23:03:12;96131.00;;;18.18;43.57
48778;BME280;34578;0.000;0.000;2024-03-23T23:08:13;96130.97;;;18.23;43.82
48778;BME280;34578;0.000;0.000;2024-03-23T23:13:13;96120.00;;;18.21;43.87
48778;BME280;34578;0.000;0.000;2024-03-23T23:18:16;96125.03;;;18.25;44.21
48778;BME280;34578;0.000;0.000;2024-03-23T23:23:18;96110.69;;;18.26;44.35
48778;BME280;34578;0.000;0.000;2024-03-23T23:28:18;96121.69;;;18.25;44.90
48778;BME280;34578;0.000;0.000;2024-03-23T23:33:20;96107.28;;;18.27;44.73
48778;BME280;34578;0.000;0.000;2024-03-23T23:38:20;96105.63;;;18.26;44.46
48778;BME280;34578;0.000;0.000;2024-03-23T23:43:22;96101.41;;;18.23;43.10
48778;BME280;34578;0.000;0.000;2024-03-23T23:48:24;96099.72;;;18.24;43.30
48778;BME280;34578;0.000;0.000;2024-03-23T23:53:24;96093.84;;;18.19;43.23
48778;BME280;34578;0.000;0.000;2024-03-23T23:58:25;96102.31;;;18.19;42.87
